Time;durP1;ratioP1;P1;durP2;ratioP2;P2;SDS_P1;SDS_P2;PMS_P1;PMS_P2;Temp;Humidity;BMP_temperature;BMP_pressure;BME280_temperature;BME280_humidity;BME280_pressure;Samples;Min_cycle;Max_cycle;Signal;HPM_P1;HPM_P2
2022/08/10 00:02:44;;;;;;;4.80;3.07;;;15.60;99.90;;;;;;5031889;28;20595;-86
2022/08/10 00:05:10;;;;;;;5.80;3.07;;;15.50;99.90;;;;;;5020703;28;20220;-87
2022/08/10 00:07:35;;;;;;;4.13;2.73;;;15.40;99.90;;;;;;5037975;28;20296;-86
2022/08/10 00:10:01;;;;;;;6.17;2.57;;;15.50;99.90;;;;;;5038085;28;20217;-86
2022/08/10 00:12:27;;;;;;;5.40;3.00;;;15.40;99.90;;;;;;5038444;28;20270;-86
2022/08/10 00:14:53;;;;;;;6.10;3.10;;;15.30;99.90;;;;;;5035396;28;20537;-87
2022/08/10 00:17:18;;;;;;;6.33;2.83;;;15.20;99.90;;;;;;5065066;28;20212;-86
2022/08/10 00:19:44;;;;;;;4.60;2.97;;;15.30;99.90;;;;;;5041107;28;20600;-86
2022/08/10 00:22:10;;;;;;;5.20;3.20;;;15.20;99.90;;;;;;5024970;28;20217;-86
2022/08/10 00:24:36;;;;;;;5.67;3.10;;;15.10;99.90;;;;;;5038492;28;20214;-86
2022/08/10 00:27:02;;;;;;;4.47;3.20;;;15.10;99.90;;;;;;5050361;28;20185;-86
2022/08/10 00:29:28;;;;;;;3.03;2.60;;;15.10;99.90;;;;;;5055528;28;20194;-87
2022/08/10 00:31:54;;;;;;;4.23;3.07;;;15.20;99.90;;;;;;5038358;28;20263;-86
2022/08/10 00:34:20;;;;;;;4.33;3.10;;;15.20;99.90;;;;;;5049163;28;20217;-86
2022/08/10 00:36:45;;;;;;;3.37;2.53;;;15.10;99.90;;;;;;5041829;28;20224;-86
2022/08/10 00:39:11;;;;;;;5.50;3.00;;;15.10;99.90;;;;;;5051092;28;20229;-87
2022/08/10 00:41:37;;;;;;;4.33;3.33;;;15.00;99.90;;;;;;5026373;28;20186;-87
2022/08/10 00:44:03;;;;;;;6.00;3.53;;;15.00;99.90;;;;;;5021620;28;20232;-86
2022/08/10 00:46:28;;;;;;;4.30;3.60;;;15.10;99.90;;;;;;5021931;28;20229;-87
2022/08/10 00:48:54;;;;;;;5.53;3.63;;;15.10;99.90;;;;;;5040217;28;20221;-87
2022/08/10 00:51:20;;;;;;;4.83;3.20;;;15.00;99.90;;;;;;5039223;28;20654;-85
2022/08/10 00:53:46;;;;;;;9.20;3.13;;;14.80;99.90;;;;;;5022280;28;20189;-86
2022/08/10 00:56:12;;;;;;;6.40;2.50;;;14.60;99.90;;;;;;5021371;28;20740;-86
2022/08/10 00:58:38;;;;;;;2.67;2.23;;;14.50;99.90;;;;;;5047884;28;20304;-87
2022/08/10 01:01:04;;;;;;;2.17;1.50;;;14.40;99.90;;;;;;5041420;28;20265;-87
2022/08/10 01:03:30;;;;;;;3.10;1.87;;;14.30;99.90;;;;;;5031559;28;20230;-87
2022/08/10 01:06:02;;;;;;;3.87;2.20;;;14.30;99.90;;;;;;5038004;28;20188;-86
2022/08/10 01:08:46;;;;;;;3.83;2.73;;;14.20;99.90;;;;;;5038574;28;20561;-87
2022/08/10 01:11:40;;;;;;;4.00;2.80;;;14.30;99.90;;;;;;5054398;28;20221;-86
2022/08/10 01:14:15;;;;;;;5.20;2.90;;;14.30;99.90;;;;;;5010945;28;20643;-86
2022/08/10 01:16:49;;;;;;;5.13;2.53;;;14.20;99.90;;;;;;5057518;28;20704;-86
2022/08/10 01:19:36;;;;;;;4.30;2.30;;;14.10;99.90;;;;;;5057789;28;20233;-86
2022/08/10 01:22:30;;;;;;;4.27;2.30;;;14.10;99.90;;;;;;5057401;28;20221;-86
2022/08/10 01:25:10;;;;;;;3.87;2.37;;;14.10;99.90;;;;;;5052973;28;20220;-87
2022/08/10 01:27:49;;;;;;;3.90;2.27;;;14.20;99.90;;;;;;5055674;28;20395;-86
2022/08/10 01:30:17;;;;;;;3.00;2.47;;;14.20;99.90;;;;;;5045846;28;20222;-86
2022/08/10 01:32:59;;;;;;;4.27;2.83;;;14.20;99.90;;;;;;5025305;28;20181;-86
2022/08/10 01:35:36;;;;;;;3.27;2.00;;;14.20;99.90;;;;;;5070265;28;20221;-86
2022/08/10 01:38:09;;;;;;;4.43;3.07;;;14.20;99.90;;;;;;5055178;28;20228;-86
2022/08/10 01:40:40;;;;;;;3.67;2.90;;;14.30;99.90;;;;;;5057213;28;20274;-87
2022/08/10 01:43:09;;;;;;;3.33;2.70;;;14.40;99.90;;;;;;5054129;28;20218;-86
2022/08/10 01:45:38;;;;;;;4.13;2.10;;;14.50;99.90;;;;;;5056593;28;20248;-86
2022/08/10 01:50:54;;;;;;;2.93;1.83;;;14.30;99.90;;;;;;5039959;28;20163;-85
2022/08/10 01:53:23;;;;;;;2.80;1.77;;;14.30;99.90;;;;;;5056822;28;20292;-86
2022/08/10 01:55:52;;;;;;;4.93;2.90;;;14.30;99.90;;;;;;5074339;28;20217;-86
2022/08/10 01:58:19;;;;;;;3.27;2.53;;;14.40;99.90;;;;;;5056941;28;20308;-86
2022/08/10 02:00:49;;;;;;;6.73;2.43;;;14.60;99.90;;;;;;5053274;28;20418;-85
2022/08/10 02:03:18;;;;;;;4.47;2.80;;;14.70;99.90;;;;;;5044545;28;20233;-86
2022/08/10 02:05:50;;;;;;;4.67;2.80;;;14.50;99.90;;;;;;5037680;28;20224;-86
2022/08/10 02:08:18;;;;;;;5.77;3.50;;;14.50;99.90;;;;;;5054038;28;20222;-86
2022/08/10 02:10:44;;;;;;;6.20;4.10;;;14.70;99.90;;;;;;5034926;28;20220;-86
2022/08/10 02:13:13;;;;;;;7.33;4.13;;;14.70;99.90;;;;;;5043005;28;20216;-86
2022/08/10 02:15:41;;;;;;;6.10;3.80;;;14.80;99.90;;;;;;5020483;28;20209;-86
2022/08/10 02:18:09;;;;;;;7.73;4.63;;;15.00;99.90;;;;;;5023628;28;20288;-86
2022/08/10 02:20:47;;;;;;;10.43;4.23;;;15.10;99.90;;;;;;5051215;28;20880;-86
2022/08/10 02:23:23;;;;;;;6.63;4.27;;;15.20;99.90;;;;;;5051393;28;20665;-86
2022/08/10 02:25:52;;;;;;;7.03;4.33;;;15.30;99.90;;;;;;5035910;28;20205;-86
2022/08/10 02:28:21;;;;;;;6.33;4.00;;;15.30;99.90;;;;;;5054225;28;20289;-86
2022/08/10 02:30:49;;;;;;;7.63;4.20;;;15.30;99.90;;;;;;5052849;28;20214;-86
2022/08/10 02:33:17;;;;;;;4.83;2.57;;;15.20;99.90;;;;;;5062640;28;20301;-87
2022/08/10 02:35:44;;;;;;;5.90;3.20;;;14.90;99.90;;;;;;5039751;28;20174;-86
2022/08/10 02:38:12;;;;;;;4.70;3.37;;;14.90;99.90;;;;;;5054432;28;20236;-85
2022/08/10 02:40:45;;;;;;;4.23;2.77;;;14.80;99.90;;;;;;5036872;28;20241;-86
2022/08/10 02:43:25;;;;;;;18.87;2.70;;;14.60;99.90;;;;;;5064052;28;20643;-86
2022/08/10 02:46:02;;;;;;;6.83;2.27;;;14.50;99.90;;;;;;5052412;28;20221;-85
2022/08/10 02:48:41;;;;;;;31.93;3.60;;;14.30;99.90;;;;;;5055874;28;20217;-86
2022/08/10 02:51:56;;;;;;;26.20;3.13;;;14.20;99.90;;;;;;5055785;28;20260;-85
2022/08/10 02:54:27;;;;;;;4.23;2.57;;;14.20;99.90;;;;;;5035682;28;20220;-86
2022/08/10 02:56:57;;;;;;;5.07;3.47;;;14.30;99.90;;;;;;5056070;28;20225;-85
2022/08/10 02:59:28;;;;;;;7.13;4.40;;;14.60;99.90;;;;;;5073647;28;20227;-86
2022/08/10 03:01:58;;;;;;;7.13;3.83;;;14.70;99.90;;;;;;5054597;28;20678;-86
2022/08/10 03:04:36;;;;;;;11.67;4.90;;;14.80;99.90;;;;;;5035713;28;20226;-86
2022/08/10 03:07:09;;;;;;;5.37;3.80;;;14.90;99.90;;;;;;5043133;28;20213;-86
2022/08/10 03:09:38;;;;;;;7.73;4.20;;;14.90;99.90;;;;;;5038477;28;20297;-86
2022/08/10 03:12:05;;;;;;;9.60;4.93;;;14.90;99.90;;;;;;5035085;28;20194;-86
2022/08/10 03:14:34;;;;;;;7.27;4.00;;;15.00;99.90;;;;;;5070741;28;20181;-86
2022/08/10 03:17:01;;;;;;;6.97;3.33;;;15.00;99.90;;;;;;5072910;28;20296;-86
2022/08/10 03:19:30;;;;;;;4.80;2.97;;;14.80;99.90;;;;;;5038492;28;20225;-85
2022/08/10 03:21:57;;;;;;;10.77;5.10;;;14.60;99.90;;;;;;5041687;28;20230;-85
2022/08/10 03:24:25;;;;;;;10.70;4.87;;;14.50;99.90;;;;;;5035528;28;20713;-86
2022/08/10 03:26:54;;;;;;;6.13;4.03;;;14.70;99.90;;;;;;5053364;28;20174;-85
2022/08/10 03:29:22;;;;;;;4.33;3.17;;;14.70;99.90;;;;;;5023161;28;20725;-85
2022/08/10 03:31:48;;;;;;;5.80;3.47;;;14.60;99.90;;;;;;5040660;28;20247;-86
2022/08/10 03:34:15;;;;;;;3.20;2.77;;;14.50;99.90;;;;;;5053200;28;20209;-85
2022/08/10 03:36:42;;;;;;;5.73;3.40;;;14.30;99.90;;;;;;5052881;28;20279;-85
2022/08/10 03:39:08;;;;;;;9.47;4.50;;;14.30;99.90;;;;;;5018521;28;20210;-85
2022/08/10 03:41:42;;;;;;;5.83;3.50;;;14.50;99.90;;;;;;5020707;28;20186;-85
2022/08/10 03:44:11;;;;;;;8.83;4.37;;;14.80;99.90;;;;;;5054679;28;20643;-85
2022/08/10 03:46:40;;;;;;;8.03;4.67;;;15.00;99.90;;;;;;5054895;28;20784;-86
2022/08/10 03:49:08;;;;;;;8.40;4.40;;;15.20;99.90;;;;;;5054521;28;20217;-85
2022/08/10 03:51:34;;;;;;;8.30;4.50;;;15.30;99.90;;;;;;5041115;28;20212;-85
2022/08/10 03:54:01;;;;;;;12.93;5.63;;;15.30;99.90;;;;;;5059010;28;20177;-85
2022/08/10 03:56:28;;;;;;;6.87;4.80;;;15.20;99.90;;;;;;5042998;28;20201;-86
2022/08/10 03:58:55;;;;;;;8.50;4.27;;;15.30;99.90;;;;;;5027342;28;20701;-85
2022/08/10 04:01:21;;;;;;;13.30;5.87;;;15.30;99.90;;;;;;5038947;28;20686;-85
2022/08/10 04:03:47;;;;;;;7.40;3.90;;;15.30;99.90;;;;;;5024376;28;20217;-85
2022/08/10 04:06:13;;;;;;;4.57;2.60;;;15.10;99.90;;;;;;5058377;28;20180;-85
2022/08/10 04:08:42;;;;;;;8.13;3.40;;;14.90;99.90;;;;;;5042724;28;20173;-85
2022/08/10 04:11:09;;;;;;;4.30;2.93;;;14.80;99.90;;;;;;5058507;28;20748;-85
2022/08/10 04:13:36;;;;;;;7.30;3.03;;;14.80;99.90;;;;;;5058640;28;20564;-86
2022/08/10 04:16:03;;;;;;;7.90;3.03;;;14.80;99.90;;;;;;5058379;28;20263;-85
2022/08/10 04:18:29;;;;;;;6.27;3.03;;;14.90;99.90;;;;;;5041988;28;20225;-85
2022/08/10 04:21:13;;;;;;;5.57;2.73;;;14.80;99.90;;;;;;5041997;28;20323;-84
2022/08/10 04:23:43;;;;;;;3.23;2.60;;;14.70;99.90;;;;;;5054854;28;20165;-85
2022/08/10 04:26:10;;;;;;;7.17;3.27;;;14.70;99.90;;;;;;5058204;28;20697;-85
2022/08/10 04:28:36;;;;;;;7.00;3.00;;;14.60;99.90;;;;;;5041629;28;20225;-86
2022/08/10 04:31:04;;;;;;;8.27;3.47;;;14.60;99.90;;;;;;5058193;28;20237;-85
2022/08/10 04:33:31;;;;;;;4.30;2.53;;;14.50;99.90;;;;;;5033319;28;20218;-86
2022/08/10 04:35:58;;;;;;;8.03;3.50;;;14.50;99.90;;;;;;5038140;28;20228;-85
2022/08/10 04:38:26;;;;;;;5.93;2.83;;;14.60;99.90;;;;;;5030707;28;20243;-86
2022/08/10 04:40:52;;;;;;;5.33;3.30;;;14.60;99.90;;;;;;5075860;28;20248;-86
2022/08/10 04:43:18;;;;;;;9.53;3.30;;;14.60;99.90;;;;;;5029120;28;20218;-86
2022/08/10 04:45:44;;;;;;;7.87;4.53;;;14.60;99.90;;;;;;5054523;28;20233;-86
2022/08/10 04:48:10;;;;;;;6.97;3.97;;;14.80;99.90;;;;;;5037856;28;20200;-86
2022/08/10 04:50:36;;;;;;;12.37;5.57;;;15.00;99.90;;;;;;5038753;28;20182;-85
2022/08/10 04:53:02;;;;;;;13.77;4.93;;;15.20;99.90;;;;;;5037955;28;20299;-86
2022/08/10 04:55:28;;;;;;;14.00;5.97;;;15.40;99.90;;;;;;5037988;28;20223;-86
2022/08/10 04:57:53;;;;;;;9.67;5.63;;;15.60;99.90;;;;;;5041110;28;20255;-86
2022/08/10 05:00:19;;;;;;;9.30;4.77;;;15.70;99.90;;;;;;5041192;28;20221;-86
2022/08/10 05:02:45;;;;;;;14.17;5.80;;;15.80;99.90;;;;;;5037875;28;20218;-86
2022/08/10 05:05:11;;;;;;;16.37;6.10;;;16.00;99.90;;;;;;5025329;28;20221;-86
2022/08/10 05:07:37;;;;;;;9.03;6.20;;;16.10;99.90;;;;;;5037648;28;20610;-86
2022/08/10 05:10:03;;;;;;;11.50;5.77;;;16.20;99.90;;;;;;5034076;28;20237;-86
2022/08/10 05:12:29;;;;;;;18.57;7.47;;;16.30;99.90;;;;;;5051004;28;20206;-86
2022/08/10 05:14:55;;;;;;;12.13;6.20;;;16.30;99.90;;;;;;5047522;28;20271;-85
2022/08/10 05:17:22;;;;;;;17.17;6.00;;;16.40;99.90;;;;;;5037254;28;20651;-85
2022/08/10 05:19:47;;;;;;;10.43;6.97;;;16.50;99.90;;;;;;5072472;28;20307;-85
2022/08/10 05:22:13;;;;;;;11.43;6.87;;;16.60;99.90;;;;;;5038464;28;20244;-86
2022/08/10 05:24:39;;;;;;;18.67;6.33;;;16.70;99.90;;;;;;5037664;28;20240;-86
2022/08/10 05:27:05;;;;;;;14.60;5.83;;;16.80;99.90;;;;;;5019282;28;20265;-85
2022/08/10 05:29:32;;;;;;;10.67;5.10;;;16.90;99.90;;;;;;5033043;28;20257;-85
2022/08/10 05:31:59;;;;;;;8.40;5.50;;;17.10;99.90;;;;;;5020476;28;20221;-85
2022/08/10 05:34:29;;;;;;;10.43;5.50;;;17.20;99.90;;;;;;5032215;28;20209;-85
2022/08/10 05:36:56;;;;;;;11.10;5.57;;;17.40;99.90;;;;;;5057924;28;20247;-85
2022/08/10 05:39:22;;;;;;;10.10;4.93;;;17.80;99.90;;;;;;5056876;28;20221;-85
2022/08/10 05:41:53;;;;;;;9.63;5.20;;;18.40;99.90;;;;;;5057544;28;20177;-86
2022/08/10 05:44:23;;;;;;;10.93;5.60;;;19.60;99.90;;;;;;5056717;28;20205;-86
2022/08/10 05:46:49;;;;;;;13.80;6.77;;;20.60;99.90;;;;;;5040489;28;20580;-86
2022/08/10 05:49:16;;;;;;;11.33;6.20;;;22.70;99.90;;;;;;5020574;28;20214;-86
2022/08/10 05:51:42;;;;;;;13.27;5.80;;;24.70;99.90;;;;;;5016926;28;20222;-85
2022/08/10 05:54:14;;;;;;;13.00;6.10;;;25.90;99.90;;;;;;5034227;28;20542;-86
2022/08/10 05:56:42;;;;;;;7.03;4.50;;;26.80;99.90;;;;;;5028782;28;20639;-86
2022/08/10 05:59:13;;;;;;;8.23;4.50;;;28.00;99.90;;;;;;5044410;28;20226;-85
2022/08/10 06:01:43;;;;;;;5.50;3.70;;;29.20;99.90;;;;;;5036542;28;20622;-84
2022/08/10 06:04:14;;;;;;;4.55;3.65;;;30.00;99.90;;;;;;5053191;28;20471;-90
2022/08/10 06:06:44;;;;;;;4.68;3.40;;;30.00;99.90;;;;;;5036664;28;20210;-86
2022/08/10 06:09:11;;;;;;;6.18;2.75;;;30.40;99.90;;;;;;5050704;28;20187;-85
2022/08/10 06:11:37;;;;;;;4.20;2.63;;;30.70;99.90;;;;;;5023652;28;20185;-85
2022/08/10 06:16:49;;;;;;;2.55;2.35;;;30.60;99.90;;;;;;5065282;28;20566;-85
2022/08/10 06:19:15;;;;;;;3.72;2.38;;;31.70;99.90;;;;;;5055633;28;20221;-87
2022/08/10 06:21:45;;;;;;;4.30;2.70;;;32.60;99.90;;;;;;5065587;28;20579;-86
2022/08/10 06:24:16;;;;;;;3.13;2.30;;;32.50;99.90;;;;;;5025206;28;20181;-87
2022/08/10 06:26:43;;;;;;;13.80;2.72;;;33.20;99.90;;;;;;5055683;28;20157;-85
2022/08/10 06:29:14;;;;;;;4.45;2.40;;;33.10;99.90;;;;;;5051861;28;20252;-85
2022/08/10 06:31:43;;;;;;;2.70;2.40;;;32.20;99.90;;;;;;5038991;28;20213;-85
2022/08/10 06:34:11;;;;;;;3.42;2.60;;;31.30;99.90;;;;;;5054921;28;20241;-84
2022/08/10 06:36:39;;;;;;;2.53;2.33;;;31.10;99.90;;;;;;5055255;28;20224;-84
2022/08/10 06:39:06;;;;;;;2.83;2.05;;;30.50;99.90;;;;;;5072462;28;20219;-84
2022/08/10 06:41:35;;;;;;;4.70;1.83;;;29.80;99.90;;;;;;5011805;28;20701;-83
2022/08/10 06:44:07;;;;;;;3.17;2.10;;;29.20;99.90;;;;;;5048324;28;20210;-84
2022/08/10 06:46:36;;;;;;;2.22;1.48;;;27.50;99.90;;;;;;5051523;28;20225;-84
2022/08/10 06:49:05;;;;;;;4.47;2.25;;;27.60;99.90;;;;;;5053383;28;20717;-84
2022/08/10 06:51:35;;;;;;;2.88;2.35;;;28.50;99.90;;;;;;5052223;28;20218;-85
2022/08/10 06:54:06;;;;;;;3.58;1.90;;;28.10;99.90;;;;;;5054624;28;20170;-84
2022/08/10 06:56:38;;;;;;;2.67;1.92;;;26.70;99.90;;;;;;5055497;28;20197;-86
2022/08/10 06:59:21;;;;;;;3.47;2.28;;;25.60;99.90;;;;;;5046127;28;20224;-86
2022/08/10 07:01:53;;;;;;;2.70;2.50;;;25.40;99.90;;;;;;5035734;28;20264;-85
2022/08/10 07:04:47;;;;;;;3.40;2.28;;;24.70;99.90;;;;;;5047061;28;20245;-85
2022/08/10 07:07:23;;;;;;;4.30;2.35;;;24.70;99.90;;;;;;5048951;28;20213;-85
2022/08/10 07:09:51;;;;;;;3.92;2.45;;;24.10;99.90;;;;;;5035245;28;20217;-85
2022/08/10 07:12:19;;;;;;;3.83;2.38;;;24.40;99.90;;;;;;5036798;28;20293;-85
2022/08/10 07:14:46;;;;;;;1.98;1.77;;;24.80;99.90;;;;;;5055300;28;20260;-86
2022/08/10 07:17:16;;;;;;;3.25;1.92;;;25.90;99.90;;;;;;5052710;28;20230;-86
2022/08/10 07:19:45;;;;;;;2.20;1.70;;;27.30;99.90;;;;;;5052229;28;20230;-86
2022/08/10 07:22:14;;;;;;;1.67;1.58;;;28.90;99.90;;;;;;5035165;28;20212;-86
2022/08/10 07:24:42;;;;;;;2.00;1.88;;;27.90;99.90;;;;;;5035074;28;20273;-86
2022/08/10 07:27:10;;;;;;;2.88;2.30;;;26.20;99.90;;;;;;5035097;28;20178;-85
2022/08/10 07:29:38;;;;;;;2.83;1.50;;;25.30;99.90;;;;;;5035459;28;20188;-85
2022/08/10 07:32:05;;;;;;;9.48;2.50;;;25.90;99.90;;;;;;5046674;28;20300;-85
2022/08/10 07:34:34;;;;;;;6.82;2.20;;;25.50;99.90;;;;;;5054450;28;20223;-86
2022/08/10 07:37:04;;;;;;;2.42;1.75;;;25.90;99.90;;;;;;5043769;28;20213;-85
2022/08/10 07:39:35;;;;;;;2.40;2.15;;;26.70;99.90;;;;;;5054656;28;20298;-85
2022/08/10 07:42:03;;;;;;;4.68;1.65;;;26.80;99.90;;;;;;5072704;28;20212;-85
2022/08/10 07:44:31;;;;;;;5.45;1.70;;;27.60;99.90;;;;;;5038585;28;20182;-86
2022/08/10 07:47:02;;;;;;;4.50;2.00;;;28.10;99.90;;;;;;5042028;28;20573;-85
2022/08/10 07:49:35;;;;;;;5.05;1.80;;;28.50;99.90;;;;;;5063242;28;20206;-86
2022/08/10 07:52:06;;;;;;;4.45;1.45;;;28.60;99.90;;;;;;5052615;28;20304;-86
2022/08/10 07:54:38;;;;;;;2.28;1.75;;;28.30;99.90;;;;;;5044085;28;20220;-85
2022/08/10 07:57:08;;;;;;;2.75;1.75;;;27.80;99.90;;;;;;5072175;28;20165;-85
2022/08/10 07:59:40;;;;;;;1.42;1.33;;;26.90;99.90;;;;;;5054665;28;20220;-86
2022/08/10 08:02:12;;;;;;;2.80;1.63;;;27.50;99.90;;;;;;5054140;28;20221;-85
2022/08/10 08:04:39;;;;;;;3.05;1.77;;;27.60;99.90;;;;;;5043298;28;20218;-86
2022/08/10 08:07:07;;;;;;;2.97;1.50;;;27.80;99.90;;;;;;5043004;28;20261;-86
2022/08/10 08:09:36;;;;;;;3.97;1.40;;;28.10;99.90;;;;;;5018235;28;20631;-86
2022/08/10 08:12:04;;;;;;;2.60;1.75;;;27.20;99.90;;;;;;5034681;28;20174;-85
2022/08/10 08:14:32;;;;;;;1.67;1.55;;;26.50;99.90;;;;;;5034727;28;20174;-86
2022/08/10 08:16:58;;;;;;;2.85;1.52;;;26.80;99.90;;;;;;5029478;28;20674;-86
2022/08/10 08:19:25;;;;;;;1.75;1.63;;;27.30;99.90;;;;;;5017269;28;20296;-86
2022/08/10 08:21:52;;;;;;;4.63;2.10;;;27.30;99.90;;;;;;5034213;28;20267;-86
2022/08/10 08:24:21;;;;;;;3.30;1.55;;;27.60;99.90;;;;;;5034442;28;20565;-86
2022/08/10 08:26:47;;;;;;;3.38;1.83;;;28.40;99.90;;;;;;5053446;28;20201;-86
2022/08/10 08:29:15;;;;;;;1.60;1.50;;;27.70;99.90;;;;;;5054040;28;20275;-86
2022/08/10 08:31:43;;;;;;;1.50;1.40;;;27.30;99.90;;;;;;5037446;28;20216;-86
2022/08/10 08:34:12;;;;;;;3.05;1.88;;;26.90;99.90;;;;;;5029710;28;20218;-86
2022/08/10 08:36:40;;;;;;;2.00;1.58;;;27.70;99.90;;;;;;5034828;28;20304;-86
2022/08/10 08:39:06;;;;;;;2.17;1.77;;;28.00;99.90;;;;;;5055607;28;20182;-85
2022/08/10 08:41:44;;;;;;;3.97;1.90;;;27.50;99.90;;;;;;5064315;28;20664;-85
2022/08/10 08:44:15;;;;;;;2.72;1.63;;;27.00;99.90;;;;;;5057425;28;20212;-86
2022/08/10 08:47:06;;;;;;;3.38;2.05;;;26.80;99.90;;;;;;5057537;28;20224;-86
2022/08/10 08:49:41;;;;;;;4.10;2.25;;;26.80;99.90;;;;;;5048333;28;20217;-85
2022/08/10 08:52:18;;;;;;;1.88;1.67;;;27.40;99.90;;;;;;5057939;28;20217;-86
2022/08/10 08:54:56;;;;;;;1.50;1.40;;;27.20;99.90;;;;;;5057110;28;20220;-85
2022/08/10 08:57:41;;;;;;;1.95;1.75;;;26.60;99.90;;;;;;5057217;28;20693;-85
2022/08/10 09:00:16;;;;;;;3.10;1.73;;;27.00;99.90;;;;;;5057424;28;20190;-87
2022/08/10 09:02:51;;;;;;;2.40;1.70;;;27.60;99.90;;;;;;5057611;28;20213;-87
2022/08/10 09:05:54;;;;;;;2.83;1.88;;;27.60;99.90;;;;;;5048565;28;20214;-90
2022/08/10 09:08:20;;;;;;;1.88;1.42;;;27.30;99.90;;;;;;5041057;28;20224;-87
2022/08/10 09:11:18;;;;;;;2.38;1.77;;;27.20;99.90;;;;;;5049455;28;20692;-88
2022/08/10 09:13:57;;;;;;;2.67;1.95;;;27.50;99.90;;;;;;5056952;28;20249;-87
2022/08/10 09:16:34;;;;;;;4.25;2.10;;;27.00;99.90;;;;;;5056853;28;20259;-87
2022/08/10 09:19:12;;;;;;;2.22;1.65;;;27.10;99.90;;;;;;5056872;28;20219;-87
2022/08/10 09:21:45;;;;;;;4.13;2.05;;;26.70;99.90;;;;;;5057296;28;20239;-86
2022/08/10 09:24:42;;;;;;;1.95;1.80;;;26.80;99.90;;;;;;5057284;28;20200;-87
2022/08/10 09:27:20;;;;;;;2.78;1.77;;;27.00;99.90;;;;;;5057362;28;20528;-87
2022/08/10 09:29:56;;;;;;;2.72;1.65;;;27.30;99.90;;;;;;5057848;28;20208;-87
2022/08/10 09:32:43;;;;;;;4.10;1.77;;;27.40;99.90;;;;;;5057328;28;20201;-87
2022/08/10 09:35:22;;;;;;;2.20;2.00;;;26.80;99.90;;;;;;5057096;28;20634;-87
2022/08/10 09:38:15;;;;;;;2.92;2.25;;;27.30;99.90;;;;;;5056751;28;20216;-87
2022/08/10 09:40:57;;;;;;;3.33;1.77;;;26.90;99.90;;;;;;5053612;28;20237;-87
2022/08/10 09:44:04;;;;;;;3.45;2.03;;;26.80;99.90;;;;;;5054372;28;20554;-88
2022/08/10 09:46:54;;;;;;;5.28;2.58;;;27.00;99.90;;;;;;5037054;28;20639;-87
2022/08/10 09:49:37;;;;;;;4.20;2.42;;;26.90;99.90;;;;;;5034138;28;20217;-86
2022/08/10 09:52:32;;;;;;;2.90;2.10;;;26.90;99.90;;;;;;5036493;28;20273;-86
2022/08/10 09:55:15;;;;;;;2.88;2.40;;;26.90;99.90;;;;;;5052679;28;20754;-87
2022/08/10 09:58:44;;;;;;;3.95;2.05;;;27.60;99.90;;;;;;5042689;28;20693;-87
2022/08/10 10:01:31;;;;;;;3.33;2.08;;;27.80;99.90;;;;;;4973475;28;20235;-87
2022/08/10 10:04:41;;;;;;;3.25;1.88;;;28.50;99.90;;;;;;4973809;28;20302;-87
2022/08/10 10:07:12;;;;;;;2.90;2.20;;;28.40;99.90;;;;;;5038784;28;20217;-87
2022/08/10 10:10:03;;;;;;;2.53;1.95;;;28.20;99.90;;;;;;5052744;28;20272;-87
2022/08/10 10:12:28;;;;;;;2.45;2.25;;;28.20;99.90;;;;;;5056176;28;20243;-87
2022/08/10 10:15:30;;;;;;;2.38;2.00;;;27.90;99.90;;;;;;5056785;28;20208;-88
2022/08/10 10:18:02;;;;;;;2.60;2.25;;;28.10;99.90;;;;;;5047903;28;20371;-87
2022/08/10 10:21:00;;;;;;;2.38;1.95;;;28.20;99.90;;;;;;5056201;28;20208;-88
2022/08/10 10:23:25;;;;;;;3.28;2.05;;;28.70;99.90;;;;;;5056156;28;20233;-87
2022/08/10 10:26:05;;;;;;;3.47;2.30;;;28.90;99.90;;;;;;5045974;28;20636;-87
2022/08/10 10:28:50;;;;;;;4.00;2.28;;;28.40;99.90;;;;;;5055860;28;20274;-88
2022/08/10 10:32:09;;;;;;;7.97;2.35;;;28.40;99.90;;;;;;5047308;28;20306;-88
2022/08/10 10:34:44;;;;;;;2.40;1.85;;;28.30;99.90;;;;;;4983387;28;20268;-88
2022/08/10 10:37:12;;;;;;;2.67;2.20;;;28.90;99.90;;;;;;4973477;28;20211;-88
2022/08/10 10:39:45;;;;;;;2.92;2.55;;;29.60;99.90;;;;;;5021796;28;20691;-89
2022/08/10 10:42:17;;;;;;;2.13;1.88;;;29.70;99.90;;;;;;5071460;28;20170;-88
2022/08/10 10:45:14;;;;;;;2.92;1.80;;;29.70;99.90;;;;;;5055923;28;20199;-88
2022/08/10 10:48:07;;;;;;;2.63;2.10;;;29.50;99.90;;;;;;5038420;28;20206;-86
2022/08/10 10:50:59;;;;;;;3.22;2.05;;;28.80;99.90;;;;;;5035723;28;20567;-88
2022/08/10 10:53:28;;;;;;;1.92;1.60;;;28.30;99.90;;;;;;5051407;28;20550;-87
2022/08/10 10:56:00;;;;;;;2.30;1.80;;;28.40;99.90;;;;;;5051779;28;20260;-87
2022/08/10 10:59:02;;;;;;;2.97;2.10;;;29.30;99.90;;;;;;5035205;28;20225;-87
2022/08/10 11:01:43;;;;;;;3.58;2.25;;;29.30;99.90;;;;;;5002963;28;20304;-87
2022/08/10 11:04:27;;;;;;;2.00;1.80;;;29.50;99.90;;;;;;5034618;28;20218;-86
2022/08/10 11:07:02;;;;;;;2.33;1.40;;;28.00;99.90;;;;;;5039796;28;20209;-86
2022/08/10 11:09:36;;;;;;;4.57;1.80;;;28.20;99.90;;;;;;5054702;28;20223;-86
2022/08/10 11:12:20;;;;;;;2.03;1.50;;;27.60;99.90;;;;;;5054684;28;20165;-87
2022/08/10 11:14:53;;;;;;;1.73;1.50;;;27.30;99.90;;;;;;5038889;28;20190;-87
2022/08/10 11:17:28;;;;;;;4.07;1.90;;;27.90;99.90;;;;;;5054596;28;20274;-87
2022/08/10 11:20:21;;;;;;;2.10;1.80;;;28.20;99.90;;;;;;5043241;28;20224;-87
2022/08/10 11:22:55;;;;;;;3.22;2.50;;;28.80;99.90;;;;;;5045504;28;20216;-87
2022/08/10 11:25:30;;;;;;;3.20;2.03;;;28.00;99.90;;;;;;5054380;28;20240;-86
2022/08/10 11:27:59;;;;;;;2.42;2.03;;;27.80;99.90;;;;;;5046448;28;20418;-86
2022/08/10 11:30:51;;;;;;;2.20;1.90;;;28.00;99.90;;;;;;5055981;28;20218;-87
2022/08/10 11:33:27;;;;;;;3.35;2.15;;;27.80;99.90;;;;;;5056313;28;20292;-85
2022/08/10 11:36:02;;;;;;;4.00;1.98;;;27.70;99.90;;;;;;5053914;28;20203;-86
2022/08/10 11:38:47;;;;;;;6.20;2.20;;;27.50;99.90;;;;;;5051260;28;20328;-87
2022/08/10 11:41:43;;;;;;;2.92;2.30;;;27.70;99.90;;;;;;5034487;28;20256;-87
2022/08/10 11:44:32;;;;;;;3.50;2.20;;;27.90;99.90;;;;;;5034060;28;20218;-87
2022/08/10 11:47:14;;;;;;;3.20;2.08;;;27.40;99.90;;;;;;5034630;28;20264;-87
2022/08/10 11:49:45;;;;;;;3.63;2.13;;;26.10;99.90;;;;;;5046627;28;20241;-89
2022/08/10 11:52:35;;;;;;;2.92;2.40;;;25.90;99.90;;;;;;5071423;28;20225;-89
2022/08/10 11:55:18;;;;;;;2.90;1.90;;;25.80;99.90;;;;;;5054562;28;20217;-87
2022/08/10 11:57:46;;;;;;;4.35;2.35;;;25.60;99.90;;;;;;5055048;28;20228;-88
2022/08/10 12:00:13;;;;;;;2.97;1.95;;;25.50;99.90;;;;;;5019014;28;20665;-88
2022/08/10 12:02:49;;;;;;;2.55;2.03;;;25.50;99.90;;;;;;5051795;28;20226;-89
2022/08/10 12:05:22;;;;;;;2.88;1.95;;;25.40;99.90;;;;;;5051708;28;20689;-88
2022/08/10 12:07:52;;;;;;;2.30;2.10;;;25.80;99.90;;;;;;5051647;28;20576;-87
2022/08/10 12:10:20;;;;;;;2.75;2.28;;;25.90;99.90;;;;;;5051907;28;20221;-88
2022/08/10 12:13:14;;;;;;;5.88;2.78;;;25.70;99.90;;;;;;5056158;28;20209;-88
2022/08/10 12:15:59;;;;;;;2.40;2.17;;;25.40;99.90;;;;;;5058942;28;20213;-89
2022/08/10 12:18:32;;;;;;;4.25;2.50;;;25.40;99.90;;;;;;5059018;28;20209;-87
2022/08/10 12:21:07;;;;;;;3.40;2.15;;;25.20;99.90;;;;;;5058808;28;20276;-88
2022/08/10 12:23:41;;;;;;;2.22;1.85;;;25.60;99.90;;;;;;5059166;28;20160;-88
2022/08/10 12:26:12;;;;;;;5.13;2.30;;;25.90;99.90;;;;;;5058438;28;20628;-87
2022/08/10 12:28:48;;;;;;;4.10;2.35;;;25.70;99.90;;;;;;5058459;28;20209;-88
2022/08/10 12:31:16;;;;;;;1.75;1.65;;;25.80;99.90;;;;;;5056956;28;20308;-88
2022/08/10 12:34:17;;;;;;;3.53;1.95;;;25.80;99.90;;;;;;5054923;28;20209;-88
2022/08/10 12:36:56;;;;;;;3.13;2.20;;;26.10;99.90;;;;;;5054373;28;20209;-89
2022/08/10 12:39:27;;;;;;;4.85;2.65;;;25.80;99.90;;;;;;5056525;28;20731;-88
2022/08/10 12:42:05;;;;;;;4.22;2.30;;;25.40;99.90;;;;;;5042347;28;20342;-87
2022/08/10 12:44:30;;;;;;;3.67;2.65;;;25.10;99.90;;;;;;5058746;28;20252;-86
2022/08/10 12:47:02;;;;;;;3.72;2.15;;;25.20;99.90;;;;;;5058017;28;20213;-87
2022/08/10 12:49:52;;;;;;;5.70;1.90;;;25.60;99.90;;;;;;5058252;28;20575;-88
2022/08/10 12:52:31;;;;;;;4.07;2.33;;;25.50;99.90;;;;;;5054236;28;20257;-87
2022/08/10 12:54:59;;;;;;;3.08;2.58;;;25.70;99.90;;;;;;5038119;28;20218;-86
2022/08/10 12:57:27;;;;;;;5.93;2.90;;;25.50;99.90;;;;;;5038414;28;20225;-87
2022/08/10 13:00:01;;;;;;;2.67;2.08;;;25.70;99.90;;;;;;5041886;28;20632;-87
2022/08/10 13:02:35;;;;;;;4.28;2.95;;;26.00;99.90;;;;;;5051362;28;20233;-87
2022/08/10 13:05:07;;;;;;;4.28;2.38;;;26.00;99.90;;;;;;5046600;28;20193;-88
2022/08/10 13:07:41;;;;;;;4.85;2.53;;;25.80;99.90;;;;;;5054784;28;20674;-91
2022/08/10 13:10:14;;;;;;;3.33;2.30;;;26.00;99.90;;;;;;5055033;28;20222;-88
2022/08/10 13:12:43;;;;;;;3.05;2.50;;;26.40;99.90;;;;;;5052801;28;20268;-89
2022/08/10 13:15:24;;;;;;;2.08;1.83;;;26.50;99.90;;;;;;5051674;28;20240;-88
2022/08/10 13:17:52;;;;;;;4.18;2.25;;;26.60;99.90;;;;;;5035045;28;20222;-89
2022/08/10 13:20:34;;;;;;;3.85;2.20;;;26.50;99.90;;;;;;5022587;28;20218;-88
2022/08/10 13:23:04;;;;;;;3.47;2.17;;;26.60;99.90;;;;;;5052325;28;20276;-88